Time;durP1;ratioP1;P1;durP2;ratioP2;P2;SDS_P1;SDS_P2;PMS_P1;PMS_P2;Temp;Humidity;BMP_temperature;BMP_pressure;BME280_temperature;BME280_humidity;BME280_pressure;Samples;Min_cycle;Max_cycle;Signal;HPM_P1;HPM_P2
2022/09/23 00:00:39;;;;;;;0.20;0.20;;;11.30;99.90;;;;;;4875590;29;20059;-79
2022/09/23 00:03:05;;;;;;;0.20;0.20;;;11.30;99.90;;;;;;4874960;29;20123;-79
2022/09/23 00:05:31;;;;;;;0.20;0.20;;;11.30;99.90;;;;;;4877158;29;20549;-79
2022/09/23 00:07:58;;;;;;;0.10;0.10;;;11.20;99.90;;;;;;4876750;29;20077;-79
2022/09/23 00:10:27;;;;;;;0.20;0.20;;;11.30;99.90;;;;;;4875576;29;20049;-79
2022/09/23 00:12:54;;;;;;;0.20;0.20;;;11.20;99.90;;;;;;4859162;29;20781;-79
2022/09/23 00:15:20;;;;;;;0.20;0.20;;;11.20;99.90;;;;;;4876786;29;20052;-79
2022/09/23 00:17:46;;;;;;;0.10;0.10;;;11.20;99.90;;;;;;4881061;29;20056;-79
2022/09/23 00:20:13;;;;;;;0.10;0.10;;;11.20;99.90;;;;;;4899273;29;20072;-79
2022/09/23 00:22:39;;;;;;;0.20;0.20;;;11.20;99.90;;;;;;4878626;29;20057;-77
2022/09/23 00:25:06;;;;;;;0.20;0.20;;;11.20;99.90;;;;;;4862000;29;20049;-79
2022/09/23 00:27:38;;;;;;;0.10;0.10;;;11.10;99.90;;;;;;4854091;29;20233;-77
2022/09/23 00:30:05;;;;;;;;;;;11.10;99.90;;;;;;4864234;29;20049;-80
2022/09/23 00:32:31;;;;;;;0.20;0.20;;;11.10;99.90;;;;;;4875555;29;19972;-79
2022/09/23 00:34:57;;;;;;;0.20;0.20;;;11.00;99.90;;;;;;4859840;29;20057;-77
2022/09/23 00:37:22;;;;;;;0.10;0.10;;;11.00;99.90;;;;;;4875760;29;20071;-77
2022/09/23 00:39:48;;;;;;;0.10;0.10;;;11.00;99.90;;;;;;4872270;29;20077;-79
2022/09/23 00:42:19;;;;;;;0.10;0.10;;;11.00;99.90;;;;;;4874643;29;20465;-79
2022/09/23 00:44:53;;;;;;;0.20;0.20;;;11.00;99.90;;;;;;4876623;29;20132;-79
2022/09/23 00:47:34;;;;;;;0.10;0.10;;;10.90;99.90;;;;;;4878174;29;20060;-77
2022/09/23 00:50:21;;;;;;;0.13;0.13;;;11.00;99.90;;;;;;4868107;29;20045;-79
2022/09/23 00:52:49;;;;;;;0.20;0.20;;;11.10;99.90;;;;;;4874181;29;20058;-77
2022/09/23 00:55:24;;;;;;;0.10;0.10;;;11.00;99.90;;;;;;4858747;29;20060;-78
2022/09/23 00:57:53;;;;;;;0.20;0.20;;;10.90;99.90;;;;;;4874929;29;20053;-78
2022/09/23 01:00:20;;;;;;;0.20;0.20;;;10.80;99.90;;;;;;4856738;29;20564;-78
2022/09/23 01:02:46;;;;;;;0.20;0.20;;;10.90;99.90;;;;;;4874961;29;20442;-78
2022/09/23 01:05:13;;;;;;;0.20;0.20;;;10.90;99.90;;;;;;4876954;29;20053;-77
2022/09/23 01:07:39;;;;;;;0.17;0.17;;;10.80;99.90;;;;;;4873920;29;20044;-78
2022/09/23 01:10:06;;;;;;;0.15;0.15;;;10.90;99.90;;;;;;4856162;29;20128;-78
2022/09/23 01:12:50;;;;;;;0.10;0.10;;;10.80;99.90;;;;;;4858151;29;20055;-78
2022/09/23 01:15:39;;;;;;;0.20;0.20;;;10.90;99.90;;;;;;4875434;29;20051;-78
2022/09/23 01:18:32;;;;;;;0.10;0.10;;;10.80;99.90;;;;;;4855245;29;20053;-78
2022/09/23 01:21:01;;;;;;;0.20;0.20;;;10.80;99.90;;;;;;4874243;29;20406;-78
2022/09/23 01:24:08;;;;;;;0.20;0.20;;;10.80;99.90;;;;;;4874220;29;20056;-78
2022/09/23 01:26:53;;;;;;;0.20;0.20;;;10.80;99.90;;;;;;4857362;29;20053;-78
2022/09/23 01:29:51;;;;;;;0.20;0.20;;;10.80;99.90;;;;;;4872365;29;20045;-78
2022/09/23 01:32:32;;;;;;;0.20;0.20;;;10.80;99.90;;;;;;4857258;29;20056;-78
2022/09/23 01:35:11;;;;;;;0.20;0.20;;;10.70;99.90;;;;;;4866150;29;20048;-78
2022/09/23 01:38:02;;;;;;;0.20;0.20;;;10.70;99.90;;;;;;4858153;29;20894;-78
2022/09/23 01:40:47;;;;;;;0.20;0.20;;;10.70;99.90;;;;;;4856692;29;20048;-78
2022/09/23 01:43:40;;;;;;;0.17;0.17;;;10.60;99.90;;;;;;4870947;29;20112;-78
2022/09/23 01:46:15;;;;;;;0.20;0.20;;;10.60;99.90;;;;;;4826442;29;20125;-78
2022/09/23 01:48:55;;;;;;;0.13;0.13;;;10.60;99.90;;;;;;4857447;29;20056;-77
2022/09/23 01:51:29;;;;;;;0.15;0.15;;;10.60;99.90;;;;;;4850007;29;20046;-78
2022/09/23 01:54:17;;;;;;;0.20;0.20;;;10.50;99.90;;;;;;4872224;29;20075;-79
2022/09/23 01:57:02;;;;;;;0.20;0.20;;;10.50;99.90;;;;;;4875177;29;20081;-78
2022/09/23 01:59:38;;;;;;;0.20;0.20;;;10.50;99.90;;;;;;4875645;29;20049;-78
2022/09/23 02:02:40;;;;;;;0.10;0.10;;;10.40;99.90;;;;;;4876975;29;20128;-78
2022/09/23 02:05:09;;;;;;;0.20;0.20;;;10.50;99.90;;;;;;4873241;29;20064;-79
2022/09/23 02:07:34;;;;;;;0.10;0.10;;;10.40;99.90;;;;;;4858080;29;20055;-78
2022/09/23 02:10:16;;;;;;;0.20;0.20;;;10.40;99.90;;;;;;4877713;29;20045;-78
2022/09/23 02:12:44;;;;;;;0.10;0.10;;;10.30;99.90;;;;;;4876963;29;20041;-78
2022/09/23 02:15:18;;;;;;;0.10;0.10;;;10.30;99.90;;;;;;4875185;29;20132;-78
2022/09/23 02:17:52;;;;;;;0.20;0.20;;;10.20;99.90;;;;;;4872098;29;20056;-78
2022/09/23 02:20:28;;;;;;;0.17;0.17;;;10.20;99.90;;;;;;4872569;29;20041;-78
2022/09/23 02:23:18;;;;;;;0.20;0.20;;;10.20;99.90;;;;;;4856351;29;20049;-78
2022/09/23 02:25:54;;;;;;;0.20;0.20;;;10.30;99.90;;;;;;4856039;29;20061;-78
2022/09/23 02:28:53;;;;;;;0.20;0.20;;;10.20;99.90;;;;;;4861317;29;20084;-78
2022/09/23 02:31:34;;;;;;;0.10;0.10;;;10.20;99.90;;;;;;4851074;29;20113;-78
2022/09/23 02:34:11;;;;;;;0.10;0.10;;;10.30;99.90;;;;;;4857228;29;20509;-78
2022/09/23 02:36:36;;;;;;;0.20;0.20;;;10.30;99.90;;;;;;4857453;29;20375;-78
2022/09/23 02:39:06;;;;;;;0.17;0.17;;;10.30;99.90;;;;;;4856257;29;20064;-78
2022/09/23 02:42:03;;;;;;;0.10;0.10;;;10.30;99.90;;;;;;4873916;29;20120;-78
2022/09/23 02:44:28;;;;;;;0.10;0.10;;;10.30;99.90;;;;;;4856131;29;20663;-78
2022/09/23 02:46:56;;;;;;;0.17;0.17;;;10.30;99.90;;;;;;4874345;29;20056;-78
2022/09/23 02:49:32;;;;;;;0.20;0.20;;;10.20;99.90;;;;;;4873108;29;20041;-78
2022/09/23 02:52:04;;;;;;;0.20;0.20;;;10.20;99.90;;;;;;4855233;29;20564;-78
2022/09/23 02:54:32;;;;;;;;;;;10.20;99.90;;;;;;4875054;29;20037;-78
2022/09/23 02:57:01;;;;;;;0.10;0.10;;;10.20;99.90;;;;;;4856281;29;20284;-78
2022/09/23 02:59:28;;;;;;;0.10;0.10;;;10.10;99.90;;;;;;4869200;29;20679;-78
2022/09/23 03:02:16;;;;;;;0.17;0.17;;;10.10;99.90;;;;;;4872758;29;20572;-78
2022/09/23 03:05:04;;;;;;;0.20;0.20;;;10.10;99.90;;;;;;4854035;29;20071;-77
2022/09/23 03:07:42;;;;;;;0.20;0.20;;;10.10;99.90;;;;;;4861019;29;20379;-78
2022/09/23 03:10:23;;;;;;;;;;;10.10;99.90;;;;;;4874576;29;20045;-79
2022/09/23 03:13:12;;;;;;;0.10;0.10;;;10.10;99.90;;;;;;4873983;29;19928;-79
2022/09/23 03:15:59;;;;;;;0.20;0.20;;;10.10;99.90;;;;;;4855896;29;20089;-78
2022/09/23 03:18:43;;;;;;;0.20;0.20;;;10.00;99.90;;;;;;4848749;29;20560;-78
2022/09/23 03:21:16;;;;;;;0.20;0.20;;;10.00;99.90;;;;;;4856152;29;20057;-79
2022/09/23 03:23:45;;;;;;;0.20;0.20;;;10.00;99.90;;;;;;4859827;29;20063;-78
2022/09/23 03:26:21;;;;;;;0.20;0.20;;;10.00;99.90;;;;;;4862431;29;20493;-78
2022/09/23 03:28:49;;;;;;;0.13;0.13;;;9.90;99.90;;;;;;4876699;29;20093;-78
2022/09/23 03:31:15;;;;;;;0.20;0.20;;;9.90;99.90;;;;;;4860430;29;20489;-78
2022/09/23 03:33:48;;;;;;;0.10;0.10;;;9.90;99.90;;;;;;4858289;29;20059;-78
2022/09/23 03:39:07;;;;;;;0.17;0.17;;;9.90;99.90;;;;;;4875803;29;20085;-78
2022/09/23 03:41:42;;;;;;;0.20;0.20;;;9.80;99.90;;;;;;4877761;29;20049;-78
2022/09/23 03:44:09;;;;;;;0.50;0.50;;;9.90;99.90;;;;;;4872978;29;20068;-78
2022/09/23 03:46:35;;;;;;;0.10;0.10;;;9.80;99.90;;;;;;4877925;29;20053;-78
2022/09/23 03:49:28;;;;;;;0.20;0.20;;;9.90;99.90;;;;;;4861837;29;20075;-79
2022/09/23 03:51:54;;;;;;;0.20;0.20;;;9.80;99.90;;;;;;4870643;29;20108;-78
2022/09/23 03:54:20;;;;;;;0.20;0.20;;;9.70;99.90;;;;;;4881768;29;20044;-77
2022/09/23 03:56:46;;;;;;;0.20;0.20;;;9.60;99.90;;;;;;4863353;29;20513;-79
2022/09/23 03:59:16;;;;;;;0.20;0.20;;;9.60;99.90;;;;;;4860611;29;20060;-79
2022/09/23 04:01:42;;;;;;;0.10;0.10;;;9.50;99.90;;;;;;4860150;29;20056;-78
2022/09/23 04:04:11;;;;;;;0.20;0.20;;;9.40;99.90;;;;;;4875023;29;20135;-78
2022/09/23 04:06:36;;;;;;;0.20;0.20;;;9.40;99.90;;;;;;4859506;29;20212;-78
2022/09/23 04:09:05;;;;;;;0.20;0.20;;;9.30;99.90;;;;;;4873343;29;20064;-78
2022/09/23 04:11:30;;;;;;;0.10;0.10;;;9.20;99.90;;;;;;4861216;29;20061;-78
2022/09/23 04:13:56;;;;;;;0.10;0.10;;;9.20;99.90;;;;;;4859042;29;20049;-78
2022/09/23 04:16:22;;;;;;;0.20;0.20;;;9.20;99.90;;;;;;4857607;29;20147;-78
2022/09/23 04:18:50;;;;;;;0.10;0.10;;;9.10;99.90;;;;;;4874917;29;20037;-78
2022/09/23 04:21:16;;;;;;;0.20;0.20;;;9.20;99.90;;;;;;4861884;29;20504;-78
2022/09/23 04:23:41;;;;;;;0.20;0.20;;;9.20;99.90;;;;;;4874564;29;20051;-78
2022/09/23 04:26:07;;;;;;;0.20;0.20;;;9.20;99.90;;;;;;4875996;29;20049;-78
2022/09/23 04:28:33;;;;;;;0.10;0.10;;;9.20;99.90;;;;;;4876059;29;20116;-78
2022/09/23 04:31:02;;;;;;;0.20;0.20;;;9.20;99.90;;;;;;4873473;29;20430;-78
2022/09/23 04:33:28;;;;;;;0.20;0.20;;;9.20;99.90;;;;;;4856784;29;20057;-79
2022/09/23 04:35:54;;;;;;;0.20;0.20;;;9.20;99.90;;;;;;4859056;29;20408;-79
2022/09/23 04:38:20;;;;;;;0.10;0.10;;;9.20;99.90;;;;;;4873840;29;20037;-79
2022/09/23 04:40:47;;;;;;;0.20;0.20;;;9.30;99.90;;;;;;4858399;29;20117;-79
2022/09/23 04:43:14;;;;;;;0.10;0.10;;;9.20;99.90;;;;;;4873872;29;20055;-78
2022/09/23 04:45:41;;;;;;;0.20;0.20;;;9.20;99.90;;;;;;4856814;29;20529;-79
2022/09/23 04:48:08;;;;;;;0.10;0.10;;;9.20;99.90;;;;;;4872767;29;20508;-79
2022/09/23 04:50:34;;;;;;;0.10;0.10;;;9.10;99.90;;;;;;4857679;29;20160;-79
2022/09/23 04:53:01;;;;;;;0.10;0.10;;;9.10;99.90;;;;;;4857189;29;20434;-79
2022/09/23 04:55:27;;;;;;;0.20;0.20;;;9.10;99.90;;;;;;4858979;29;20060;-78
2022/09/23 04:57:52;;;;;;;0.20;0.20;;;9.10;99.90;;;;;;4874414;29;20049;-78
2022/09/23 05:00:18;;;;;;;0.20;0.20;;;9.00;99.90;;;;;;4872719;29;20040;-78
2022/09/23 05:02:45;;;;;;;0.20;0.20;;;9.00;99.90;;;;;;4856888;29;20497;-78
2022/09/23 05:05:12;;;;;;;0.20;0.20;;;9.00;99.90;;;;;;4858872;29;20052;-80
2022/09/23 05:07:38;;;;;;;0.20;0.20;;;9.10;99.90;;;;;;4874314;29;20053;-79
2022/09/23 05:10:05;;;;;;;0.10;0.10;;;9.00;99.90;;;;;;4873494;29;20049;-79
2022/09/23 05:12:30;;;;;;;0.20;0.20;;;9.00;99.90;;;;;;4858673;29;20049;-79
2022/09/23 05:14:56;;;;;;;0.20;0.20;;;9.40;99.90;;;;;;4858789;29;20763;-80
2022/09/23 05:17:22;;;;;;;0.20;0.20;;;9.00;99.90;;;;;;4875398;29;20036;-80
2022/09/23 05:19:48;;;;;;;0.20;0.20;;;9.00;99.90;;;;;;4873136;29;20392;-81
2022/09/23 05:22:14;;;;;;;0.20;0.20;;;9.00;99.90;;;;;;4874144;29;20536;-80
2022/09/23 05:24:39;;;;;;;0.20;0.20;;;9.00;99.90;;;;;;4874579;29;20044;-80
2022/09/23 05:27:06;;;;;;;0.10;0.10;;;9.00;99.90;;;;;;4835300;29;1103300;-80
2022/09/23 05:29:33;;;;;;;0.10;0.10;;;9.00;99.90;;;;;;4875095;29;20132;-80
2022/09/23 05:32:02;;;;;;;0.20;0.20;;;8.90;99.90;;;;;;4860505;29;20524;-78
2022/09/23 05:34:27;;;;;;;0.20;0.20;;;9.00;99.90;;;;;;4870385;29;20060;-79
2022/09/23 05:36:53;;;;;;;0.20;0.20;;;9.00;99.90;;;;;;4875672;29;20045;-79
2022/09/23 05:39:19;;;;;;;0.20;0.20;;;9.00;99.90;;;;;;4861518;29;20045;-78
2022/09/23 05:41:45;;;;;;;0.20;0.20;;;9.00;99.90;;;;;;4878921;29;20108;-79
2022/09/23 05:44:11;;;;;;;0.10;0.10;;;9.00;99.90;;;;;;4858847;29;20512;-78
2022/09/23 05:46:36;;;;;;;0.20;0.20;;;9.10;99.90;;;;;;4857693;29;20045;-79
2022/09/23 05:49:04;;;;;;;0.20;0.20;;;8.90;99.90;;;;;;4855370;29;20040;-79
2022/09/23 05:51:31;;;;;;;0.20;0.20;;;9.00;99.90;;;;;;4858161;29;20111;-79
2022/09/23 05:53:58;;;;;;;0.17;0.17;;;9.00;99.90;;;;;;4874597;29;20411;-79
2022/09/23 05:56:26;;;;;;;0.20;0.20;;;9.00;99.90;;;;;;4872917;29;20181;-79
2022/09/23 05:58:57;;;;;;;0.10;0.10;;;9.00;99.90;;;;;;4858034;29;20071;-78
2022/09/23 06:01:24;;;;;;;0.13;0.13;;;9.00;99.90;;;;;;4856751;29;20052;-78
2022/09/23 06:03:52;;;;;;;0.20;0.20;;;8.90;99.90;;;;;;4859010;29;20429;-80
2022/09/23 06:06:21;;;;;;;0.20;0.20;;;9.00;99.90;;;;;;4875178;29;20060;-79
2022/09/23 06:08:47;;;;;;;0.20;0.20;;;9.00;99.90;;;;;;4855009;29;20053;-79
2022/09/23 06:11:13;;;;;;;0.20;0.20;;;9.00;99.90;;;;;;4873987;29;20512;-80
2022/09/23 06:13:40;;;;;;;0.20;0.20;;;9.00;99.90;;;;;;4871144;29;20106;-79
2022/09/23 06:16:07;;;;;;;0.10;0.10;;;9.10;99.90;;;;;;4857803;29;20061;-79
2022/09/23 06:18:34;;;;;;;0.20;0.20;;;9.10;99.90;;;;;;4850095;29;20057;-79
2022/09/23 06:21:05;;;;;;;0.20;0.20;;;9.10;99.90;;;;;;4873384;29;20044;-79
2022/09/23 06:23:31;;;;;;;0.20;0.20;;;9.10;99.90;;;;;;4854599;29;20052;-80
2022/09/23 06:26:05;;;;;;;0.20;0.20;;;9.20;99.90;;;;;;4870961;29;20045;-78
2022/09/23 06:28:33;;;;;;;0.20;0.20;;;9.20;99.90;;;;;;4856989;29;20053;-80
2022/09/23 06:31:01;;;;;;;0.20;0.20;;;9.20;99.90;;;;;;4874765;29;20788;-79
2022/09/23 06:33:28;;;;;;;0.20;0.20;;;9.20;99.90;;;;;;4854147;29;20049;-80
2022/09/23 06:36:00;;;;;;;0.73;0.38;;;9.30;99.90;;;;;;4871719;29;20097;-85
2022/09/23 06:38:28;;;;;;;0.20;0.20;;;9.30;99.90;;;;;;4856964;29;20049;-83
2022/09/23 06:40:55;;;;;;;0.20;0.20;;;9.30;99.90;;;;;;4856324;29;20576;-84
2022/09/23 06:43:25;;;;;;;0.20;0.20;;;9.30;99.90;;;;;;4873793;29;20055;-82
2022/09/23 06:45:59;;;;;;;0.20;0.20;;;9.40;99.90;;;;;;4869369;29;20049;-82
2022/09/23 06:48:28;;;;;;;0.20;0.20;;;9.50;99.90;;;;;;4885998;29;20065;-83
2022/09/23 06:50:57;;;;;;;0.20;0.20;;;9.40;99.90;;;;;;4873938;29;20064;-83
2022/09/23 06:53:31;;;;;;;0.20;0.20;;;9.50;99.90;;;;;;4867314;29;20432;-83
2022/09/23 06:56:18;;;;;;;0.10;0.10;;;9.50;99.90;;;;;;4875792;29;20049;-83
2022/09/23 06:58:45;;;;;;;0.20;0.20;;;9.60;99.90;;;;;;4879936;29;20075;-84
2022/09/23 07:01:14;;;;;;;0.10;0.10;;;9.70;99.90;;;;;;4880223;29;20145;-83
2022/09/23 07:03:40;;;;;;;0.20;0.20;;;9.70;99.90;;;;;;4881026;29;20044;-83
2022/09/23 07:06:06;;;;;;;0.20;0.20;;;9.80;99.90;;;;;;4873601;29;20565;-85
2022/09/23 07:08:33;;;;;;;0.10;0.10;;;9.90;99.90;;;;;;4876313;29;20053;-84
2022/09/23 07:11:00;;;;;;;0.20;0.20;;;9.90;99.90;;;;;;4874097;29;20041;-84
2022/09/23 07:13:35;;;;;;;0.10;0.10;;;10.00;99.90;;;;;;4892719;29;20045;-81
2022/09/23 07:16:01;;;;;;;0.20;0.20;;;10.10;99.90;;;;;;4883646;29;20045;-83
2022/09/23 07:18:29;;;;;;;0.20;0.20;;;10.10;99.90;;;;;;4861228;29;20128;-84
2022/09/23 07:20:56;;;;;;;0.20;0.20;;;10.20;99.90;;;;;;4878499;29;20143;-83
2022/09/23 07:23:22;;;;;;;0.20;0.20;;;10.20;99.90;;;;;;4885224;29;20057;-81
2022/09/23 07:25:50;;;;;;;0.20;0.20;;;10.30;99.90;;;;;;4873111;29;20240;-84
2022/09/23 07:28:17;;;;;;;0.20;0.20;;;10.40;99.90;;;;;;4885831;29;20080;-84
2022/09/23 07:30:43;;;;;;;0.17;0.17;;;10.40;99.90;;;;;;4878497;29;20502;-85
2022/09/23 07:33:09;;;;;;;0.20;0.20;;;10.40;99.90;;;;;;4858792;29;20036;-84
2022/09/23 07:35:39;;;;;;;0.20;0.20;;;10.40;99.90;;;;;;4863266;29;20505;-84
2022/09/23 07:38:05;;;;;;;0.20;0.20;;;10.50;99.90;;;;;;4881986;29;20064;-84
2022/09/23 07:40:31;;;;;;;0.10;0.10;;;10.60;99.90;;;;;;4894953;29;20115;-84
2022/09/23 07:42:58;;;;;;;0.10;0.10;;;10.60;99.90;;;;;;4881525;29;20049;-84
2022/09/23 07:45:26;;;;;;;0.35;0.35;;;10.60;99.90;;;;;;4862027;29;20424;-82
2022/09/23 07:47:54;;;;;;;0.20;0.20;;;10.70;99.90;;;;;;4877954;29;20889;-82
2022/09/23 07:50:21;;;;;;;0.10;0.10;;;10.80;99.90;;;;;;4877573;29;20045;-82
2022/09/23 07:52:48;;;;;;;0.20;0.20;;;10.80;99.90;;;;;;4878325;29;20081;-82
2022/09/23 07:55:14;;;;;;;0.20;0.20;;;10.80;99.90;;;;;;4876548;29;20041;-82
2022/09/23 07:57:39;;;;;;;0.20;0.20;;;10.90;99.90;;;;;;4861964;29;20092;-83
2022/09/23 08:00:09;;;;;;;0.13;0.13;;;11.00;99.90;;;;;;4860040;29;20048;-82
2022/09/23 08:02:35;;;;;;;0.20;0.20;;;11.00;99.90;;;;;;4876460;29;20064;-82
2022/09/23 08:05:01;;;;;;;0.10;0.10;;;11.10;99.90;;;;;;4877069;29;20041;-83
2022/09/23 08:07:26;;;;;;;0.17;0.17;;;11.20;99.90;;;;;;4873456;29;21804;-82
2022/09/23 08:09:52;;;;;;;0.20;0.20;;;11.20;99.90;;;;;;4856113;29;20076;-81
2022/09/23 08:12:19;;;;;;;0.20;0.20;;;11.30;99.90;;;;;;4874319;29;20045;-82
2022/09/23 08:14:45;;;;;;;0.15;0.15;;;;;;;;;;4857416;29;20491;-82
2022/09/23 08:17:12;;;;;;;0.10;0.10;;;;;;;;;;4856173;29;20060;-82
2022/09/23 08:19:38;;;;;;;0.20;0.20;;;;;;;;;;4860139;29;20113;-81
2022/09/23 08:22:04;;;;;;;0.13;0.13;;;;;;;;;;4860120;29;20052;-84
2022/09/23 08:24:31;;;;;;;0.20;0.20;;;;;;;;;;4861309;29;20431;-84
2022/09/23 08:26:57;;;;;;;0.10;0.10;;;;;;;;;;4880108;29;20412;-81
2022/09/23 08:29:24;;;;;;;0.20;0.20;;;;;;;;;;4872997;29;20048;-82
2022/09/23 08:31:50;;;;;;;0.20;0.20;;;;;;;;;;4861159;29;20157;-83
2022/09/23 08:34:17;;;;;;;0.10;0.10;;;;;;;;;;4874019;29;20053;-85
2022/09/23 08:36:46;;;;;;;0.20;0.20;;;;;;;;;;4866501;29;20493;-83
2022/09/23 08:39:14;;;;;;;0.20;0.20;;;;;;;;;;4859163;29;20104;-84
2022/09/23 08:41:49;;;;;;;0.20;0.20;;;;;;;;;;4876671;29;20045;-85
2022/09/23 08:44:15;;;;;;;0.20;0.20;;;;;;;;;;4860007;29;20057;-78
2022/09/23 08:46:51;;;;;;;0.20;0.20;;;;;;;;;;4871306;29;21819;-80
2022/09/23 08:49:24;;;;;;;0.20;0.20;;;;;;;;;;4866746;29;20037;-83
2022/09/23 08:51:53;;;;;;;0.20;0.20;;;;;;;;;;4855434;29;20049;-80
2022/09/23 08:54:20;;;;;;;0.10;0.10;;;;;;;;;;4882809;29;20044;-81
2022/09/23 08:56:50;;;;;;;0.20;0.20;;;12.50;99.90;;;;;;4883296;29;20100;-79
2022/09/23 08:59:35;;;;;;;0.10;0.10;;;12.50;99.90;;;;;;4866388;29;20044;-80
2022/09/23 09:02:21;;;;;;;0.10;0.10;;;12.60;99.90;;;;;;4861885;29;20068;-79
2022/09/23 09:04:55;;;;;;;0.20;0.20;;;12.70;99.90;;;;;;4876157;29;20049;-78
2022/09/23 09:07:28;;;;;;;0.10;0.10;;;12.80;99.90;;;;;;4863293;29;20404;-79
2022/09/23 09:10:17;;;;;;;0.10;0.10;;;12.80;99.90;;;;;;4851774;29;20072;-81
2022/09/23 09:12:49;;;;;;;0.20;0.20;;;12.90;99.90;;;;;;4874431;29;20061;-79
2022/09/23 09:15:23;;;;;;;0.20;0.20;;;13.00;99.90;;;;;;4876575;29;20073;-79
2022/09/23 09:18:20;;;;;;;0.20;0.20;;;13.00;99.90;;;;;;4875881;29;20680;-78
2022/09/23 09:20:56;;;;;;;0.20;0.20;;;13.10;99.90;;;;;;4886845;29;20496;-79
2022/09/23 09:23:42;;;;;;;0.10;0.10;;;13.20;99.90;;;;;;4876260;29;20133;-78
2022/09/23 09:26:20;;;;;;;0.20;0.20;;;13.20;99.90;;;;;;4846490;29;20081;-77
2022/09/23 09:29:12;;;;;;;0.20;0.20;;;13.30;99.90;;;;;;4876857;29;20509;-78
2022/09/23 09:31:56;;;;;;;0.20;0.20;;;13.40;99.90;;;;;;4861928;29;20120;-78
2022/09/23 09:34:37;;;;;;;0.13;0.13;;;13.40;99.90;;;;;;4875737;29;20049;-78
2022/09/23 09:37:11;;;;;;;0.20;0.20;;;13.50;99.90;;;;;;4861191;29;20091;-77
2022/09/23 09:39:37;;;;;;;0.20;0.20;;;13.50;99.90;;;;;;4860535;29;20049;-80
2022/09/23 09:42:04;;;;;;;0.20;0.20;;;13.60;99.90;;;;;;4883388;29;20037;-80
2022/09/23 09:44:46;;;;;;;0.10;0.10;;;13.60;99.90;;;;;;4871569;29;20065;-80
2022/09/23 09:47:55;;;;;;;0.10;0.10;;;13.70;99.90;;;;;;4853832;29;20080;-79
2022/09/23 09:50:41;;;;;;;0.10;0.10;;;13.80;99.90;;;;;;4842957;29;20049;-80
2022/09/23 09:53:22;;;;;;;0.10;0.10;;;13.80;99.90;;;;;;4854381;29;20052;-79
2022/09/23 09:56:05;;;;;;;;;;;13.90;99.90;;;;;;4859208;29;20057;-80
2022/09/23 09:58:43;;;;;;;0.10;0.10;;;13.90;99.90;;;;;;4857987;29;19927;-81
2022/09/23 10:01:47;;;;;;;0.10;0.10;;;14.00;99.90;;;;;;4873665;29;20128;-80
2022/09/23 10:04:23;;;;;;;0.10;0.10;;;14.00;99.90;;;;;;4815668;29;20476;-80
2022/09/23 10:07:14;;;;;;;0.20;0.20;;;14.10;99.90;;;;;;4802149;29;20763;-80
2022/09/23 10:09:47;;;;;;;0.20;0.20;;;14.20;99.90;;;;;;4832577;29;20133;-79
2022/09/23 10:12:17;;;;;;;0.20;0.20;;;14.20;99.90;;;;;;4874963;29;20087;-81
2022/09/23 10:14:44;;;;;;;0.20;0.20;;;14.20;99.90;;;;;;4874210;29;20056;-80
2022/09/23 10:17:23;;;;;;;0.10;0.10;;;14.20;99.90;;;;;;4876096;29;20053;-80
2022/09/23 10:20:01;;;;;;;0.20;0.20;;;14.30;99.90;;;;;;4858547;29;20096;-82
2022/09/23 10:22:32;;;;;;;0.20;0.20;;;14.30;99.90;;;;;;4874815;29;20090;-79
2022/09/23 10:25:16;;;;;;;0.13;0.13;;;14.30;99.90;;;;;;4872041;29;20052;-80
2022/09/23 10:27:44;;;;;;;0.15;0.15;;;14.40;99.90;;;;;;4855399;29;20053;-80
2022/09/23 10:30:20;;;;;;;0.20;0.20;;;14.40;99.90;;;;;;4859552;29;20109;-81
2022/09/23 10:32:47;;;;;;;0.10;0.10;;;14.40;99.90;;;;;;4859387;29;20051;-80
2022/09/23 10:35:19;;;;;;;0.10;0.10;;;14.50;99.90;;;;;;4861492;29;20407;-80
2022/09/23 10:37:59;;;;;;;0.20;0.20;;;14.50;99.90;;;;;;4859575;29;20552;-81
2022/09/23 10:46:38;;;;;;;0.20;0.20;;;14.60;99.90;;;;;;4860730;29;20517;-80
2022/09/23 10:49:18;;;;;;;0.10;0.10;;;14.60;99.90;;;;;;4883431;29;20072;-81
2022/09/23 10:52:06;;;;;;;0.20;0.20;;;14.70;99.90;;;;;;4862650;29;20054;-81
2022/09/23 10:54:50;;;;;;;0.20;0.20;;;14.70;99.90;;;;;;4856960;29;20141;-80
2022/09/23 10:57:38;;;;;;;0.20;0.20;;;14.70;99.90;;;;;;4859709;29;20128;-81
2022/09/23 11:00:33;;;;;;;0.10;0.10;;;14.80;99.90;;;;;;4863039;29;20401;-80
2022/09/23 11:03:11;;;;;;;0.15;0.15;;;14.80;99.90;;;;;;4851478;29;20046;-81
2022/09/23 11:05:45;;;;;;;0.20;0.20;;;14.90;99.90;;;;;;4860548;29;20054;-80
2022/09/23 11:08:43;;;;;;;0.20;0.20;;;15.00;99.90;;;;;;4860444;29;20038;-80
2022/09/23 11:11:33;;;;;;;0.20;0.20;;;15.00;99.90;;;;;;4857811;29;20097;-81
2022/09/23 11:14:14;;;;;;;0.17;0.17;;;15.10;99.90;;;;;;4855729;29;20045;-80
2022/09/23 11:16:58;;;;;;;0.10;0.10;;;15.20;99.90;;;;;;4859487;29;20129;-81
2022/09/23 11:19:55;;;;;;;0.10;0.10;;;15.20;99.90;;;;;;4857005;29;20045;-80
2022/09/23 11:22:39;;;;;;;0.20;0.20;;;15.20;99.90;;;;;;4861508;29;20061;-80
2022/09/23 11:25:22;;;;;;;0.20;0.20;;;15.20;99.90;;;;;;4858646;29;20053;-79
2022/09/23 11:28:16;;;;;;;0.15;0.15;;;15.30;99.90;;;;;;4858919;29;20627;-81
2022/09/23 11:31:13;;;;;;;0.15;0.15;;;15.30;99.90;;;;;;4858736;29;20042;-82
2022/09/23 11:33:57;;;;;;;0.20;0.20;;;15.30;99.90;;;;;;4857162;29;20136;-77
2022/09/23 11:36:56;;;;;;;0.10;0.10;;;15.30;99.90;;;;;;4859867;29;20179;-77
2022/09/23 11:39:52;;;;;;;0.20;0.20;;;15.40;99.90;;;;;;4858468;29;20109;-82
2022/09/23 11:42:39;;;;;;;0.20;0.20;;;15.40;99.90;;;;;;4857744;29;20382;-81
2022/09/23 11:45:17;;;;;;;0.20;0.20;;;15.50;99.90;;;;;;4857758;29;20054;-82
2022/09/23 11:47:50;;;;;;;0.20;0.20;;;15.40;99.90;;;;;;4852374;29;20136;-81
2022/09/23 11:50:33;;;;;;;0.10;0.10;;;15.40;99.90;;;;;;4856053;29;20140;-80
2022/09/23 11:53:23;;;;;;;0.20;0.20;;;15.40;99.90;;;;;;4855169;29;20398;-81
2022/09/23 11:56:02;;;;;;;0.20;0.20;;;15.40;99.90;;;;;;4853122;29;20496;-81
2022/09/23 11:58:44;;;;;;;0.20;0.20;;;15.40;99.90;;;;;;4853527;29;20049;-75
2022/09/23 12:01:17;;;;;;;;;;;15.40;99.90;;;;;;4855327;29;20514;-78
2022/09/23 12:03:53;;;;;;;0.10;0.10;;;15.50;99.90;;;;;;4853514;29;20320;-80
2022/09/23 12:06:26;;;;;;;0.20;0.20;;;15.40;99.90;;;;;;4853994;29;20493;-81
2022/09/23 12:09:01;;;;;;;0.20;0.20;;;15.50;99.90;;;;;;4854925;29;20435;-77
2022/09/23 12:12:04;;;;;;;0.15;0.15;;;15.50;99.90;;;;;;4854191;29;20120;-84
2022/09/23 12:14:49;;;;;;;0.10;0.10;;;15.50;99.90;;;;;;4829213;29;20061;-81
2022/09/23 12:17:29;;;;;;;0.10;0.10;;;15.50;99.90;;;;;;4870399;29;20477;-80
2022/09/23 12:20:21;;;;;;;0.13;0.13;;;15.50;99.90;;;;;;4862224;29;20506;-80
2022/09/23 12:23:07;;;;;;;0.15;0.15;;;15.50;99.90;;;;;;4864189;29;20041;-81
2022/09/23 12:25:45;;;;;;;0.20;0.20;;;15.50;99.90;;;;;;4858626;29;20053;-82
2022/09/23 12:28:19;;;;;;;0.20;0.20;;;15.50;99.90;;;;;;4873649;29;20060;-79
2022/09/23 12:30:47;;;;;;;0.20;0.20;;;15.50;99.90;;;;;;4865703;29;20069;-81
2022/09/23 12:33:26;;;;;;;0.10;0.10;;;15.60;99.90;;;;;;4857164;29;20490;-80
2022/09/23 12:35:54;;;;;;;0.10;0.10;;;15.50;99.90;;;;;;4857275;29;20057;-80
2022/09/23 12:38:41;;;;;;;0.20;0.20;;;15.60;99.90;;;;;;4858212;29;20061;-80
2022/09/23 12:41:25;;;;;;;0.20;0.20;;;15.60;99.90;;;;;;4858474;29;20136;-81
2022/09/23 12:44:11;;;;;;;0.20;0.20;;;15.60;99.90;;;;;;4858591;29;20422;-78
2022/09/23 12:46:44;;;;;;;0.17;0.17;;;15.70;99.90;;;;;;4847076;29;20095;-80
2022/09/23 12:49:28;;;;;;;0.10;0.10;;;15.70;99.90;;;;;;4857553;29;20045;-78
2022/09/23 12:52:23;;;;;;;0.20;0.20;;;15.80;99.90;;;;;;4859152;29;20045;-77
2022/09/23 12:54:50;;;;;;;0.20;0.20;;;15.80;99.90;;;;;;4858450;29;20062;-82
2022/09/23 12:57:34;;;;;;;0.20;0.20;;;15.80;99.90;;;;;;4856317;29;20094;-84
2022/09/23 13:00:10;;;;;;;0.13;0.13;;;15.80;99.90;;;;;;4859031;29;20099;-84
2022/09/23 13:08:34;;;;;;;0.20;0.20;;;15.90;99.90;;;;;;4866329;29;20053;-82
2022/09/23 13:11:03;;;;;;;0.20;0.20;;;16.00;99.90;;;;;;4869487;29;20066;-87
2022/09/23 13:13:31;;;;;;;0.10;0.10;;;16.00;99.90;;;;;;4853901;29;20041;-84
2022/09/23 13:16:26;;;;;;;0.10;0.10;;;16.00;99.90;;;;;;4856213;29;20076;-86
2022/09/23 13:19:00;;;;;;;0.20;0.20;;;16.00;99.90;;;;;;4856073;29;20082;-84
2022/09/23 13:21:41;;;;;;;0.15;0.15;;;16.00;99.90;;;;;;4857474;29;20045;-86
2022/09/23 13:24:19;;;;;;;0.20;0.20;;;16.00;99.90;;;;;;4855537;29;20045;-82
2022/09/23 13:26:50;;;;;;;0.20;0.20;;;16.00;99.90;;;;;;4856899;29;20534;-82
2022/09/23 13:29:33;;;;;;;0.10;0.10;;;16.00;99.90;;;;;;4855294;29;20051;-83
2022/09/23 13:32:00;;;;;;;0.20;0.20;;;16.00;99.90;;;;;;4857122;29;20084;-82
2022/09/23 13:34:35;;;;;;;0.20;0.20;;;16.00;99.90;;;;;;4859672;29;20698;-83
2022/09/23 13:37:40;;;;;;;0.20;0.20;;;16.00;99.90;;;;;;4857159;29;20049;-82
2022/09/23 13:40:27;;;;;;;0.10;0.10;;;16.00;99.90;;;;;;4847137;29;20642;-83
2022/09/23 13:42:57;;;;;;;0.20;0.20;;;16.00;99.90;;;;;;4865618;29;20140;-82
2022/09/23 13:45:25;;;;;;;0.15;0.15;;;16.00;99.90;;;;;;4858366;29;20096;-84